sensor_id;sensor_type;location;lat;lon;timestamp;temperature;humidity
29577;DHT22;16509;53.862;10.672;2024-01-07T00:01:31;-0.50;99.90
29577;DHT22;16509;53.862;10.672;2024-01-07T00:03:56;-0.50;99.90
29577;DHT22;16509;53.862;10.672;2024-01-07T00:06:22;-0.50;99.90
29577;DHT22;16509;53.862;10.672;2024-01-07T00:08:48;-0.50;99.90
29577;DHT22;16509;53.862;10.672;2024-01-07T00:11:13;-0.50;99.90
29577;DHT22;16509;53.862;10.672;2024-01-07T00:13:39;-0.50;99.90
29577;DHT22;16509;53.862;10.672;2024-01-07T00:16:04;-0.50;99.90
29577;DHT22;16509;53.862;10.672;2024-01-07T00:18:30;-0.50;99.90
29577;DHT22;16509;53.862;10.672;2024-01-07T00:20:55;-0.50;99.90
29577;DHT22;16509;53.862;10.672;2024-01-07T00:23:21;-0.40;99.90
29577;DHT22;16509;53.862;10.672;2024-01-07T00:25:47;-0.40;99.90
29577;DHT22;16509;53.862;10.672;2024-01-07T00:28:13;-0.50;99.90
29577;DHT22;16509;53.862;10.672;2024-01-07T00:30:38;-0.40;99.90
29577;DHT22;16509;53.862;10.672;2024-01-07T00:33:04;-0.50;99.90
29577;DHT22;16509;53.862;10.672;2024-01-07T00:35:29;-0.50;99.90
29577;DHT22;16509;53.862;10.672;2024-01-07T00:37:55;-0.50;99.90
29577;DHT22;16509;53.862;10.672;2024-01-07T00:40:25;-0.50;99.90
29577;DHT22;16509;53.862;10.672;2024-01-07T00:42:51;-0.50;99.90
29577;DHT22;16509;53.862;10.672;2024-01-07T00:45:18;-0.50;99.90
29577;DHT22;16509;53.862;10.672;2024-01-07T00:47:44;-0.50;99.90
29577;DHT22;16509;53.862;10.672;2024-01-07T00:50:09;-0.50;99.90
29577;DHT22;16509;53.862;10.672;2024-01-07T00:52:35;-0.50;99.90
29577;DHT22;16509;53.862;10.672;2024-01-07T00:55:04;-0.50;99.90
29577;DHT22;16509;53.862;10.672;2024-01-07T00:57:31;-0.50;99.90
29577;DHT22;16509;53.862;10.672;2024-01-07T00:59:57;-0.50;99.90
29577;DHT22;16509;53.862;10.672;2024-01-07T01:02:22;-0.50;99.90
29577;DHT22;16509;53.862;10.672;2024-01-07T01:04:48;-0.50;99.90
29577;DHT22;16509;53.862;10.672;2024-01-07T01:07:14;-0.50;99.90
29577;DHT22;16509;53.862;10.672;2024-01-07T01:09:39;-0.50;99.90
29577;DHT22;16509;53.862;10.672;2024-01-07T01:12:05;-0.50;99.90
29577;DHT22;16509;53.862;10.672;2024-01-07T01:14:31;-0.50;99.90
29577;DHT22;16509;53.862;10.672;2024-01-07T01:16:56;-0.50;99.90
29577;DHT22;16509;53.862;10.672;2024-01-07T01:19:22;-0.40;99.90
29577;DHT22;16509;53.862;10.672;2024-01-07T01:21:47;-0.40;99.90
29577;DHT22;16509;53.862;10.672;2024-01-07T01:24:13;-0.40;99.90
29577;DHT22;16509;53.862;10.672;2024-01-07T01:26:38;-0.40;99.90
29577;DHT22;16509;53.862;10.672;2024-01-07T01:29:05;-0.30;99.90
29577;DHT22;16509;53.862;10.672;2024-01-07T01:31:30;-0.30;99.90
29577;DHT22;16509;53.862;10.672;2024-01-07T01:33:56;-0.30;99.90
29577;DHT22;16509;53.862;10.672;2024-01-07T01:36:21;-0.30;99.90
29577;DHT22;16509;53.862;10.672;2024-01-07T01:38:47;-0.30;99.90
29577;DHT22;16509;53.862;10.672;2024-01-07T01:41:14;-0.30;99.90
29577;DHT22;16509;53.862;10.672;2024-01-07T01:43:40;-0.20;99.90
29577;DHT22;16509;53.862;10.672;2024-01-07T01:46:05;-0.20;99.90
29577;DHT22;16509;53.862;10.672;2024-01-07T01:48:31;-0.20;99.90
29577;DHT22;16509;53.862;10.672;2024-01-07T01:50:56;-0.20;99.90
29577;DHT22;16509;53.862;10.672;2024-01-07T01:53:26;-0.20;99.90
29577;DHT22;16509;53.862;10.672;2024-01-07T01:55:52;-0.20;99.90
29577;DHT22;16509;53.862;10.672;2024-01-07T01:58:19;-0.20;99.90
29577;DHT22;16509;53.862;10.672;2024-01-07T02:00:45;-0.20;99.90
29577;DHT22;16509;53.862;10.672;2024-01-07T02:03:11;-0.20;99.90
29577;DHT22;16509;53.862;10.672;2024-01-07T02:05:37;-0.20;99.90
29577;DHT22;16509;53.862;10.672;2024-01-07T02:08:02;-0.20;99.90
29577;DHT22;16509;53.862;10.672;2024-01-07T02:10:29;-0.20;99.90
29577;DHT22;16509;53.862;10.672;2024-01-07T02:13:00;-0.30;99.90
29577;DHT22;16509;53.862;10.672;2024-01-07T02:15:25;0.70;99.90
29577;DHT22;16509;53.862;10.672;2024-01-07T02:17:51;-0.30;99.90
29577;DHT22;16509;53.862;10.672;2024-01-07T02:20:17;-0.30;99.90
29577;DHT22;16509;53.862;10.672;2024-01-07T02:22:42;-0.30;99.90
29577;DHT22;16509;53.862;10.672;2024-01-07T02:25:08;-0.20;99.90
29577;DHT22;16509;53.862;10.672;2024-01-07T02:27:34;-0.20;99.90
29577;DHT22;16509;53.862;10.672;2024-01-07T02:29:59;-0.30;99.90
29577;DHT22;16509;53.862;10.672;2024-01-07T02:32:25;-0.20;99.90
29577;DHT22;16509;53.862;10.672;2024-01-07T02:34:50;-0.30;99.90
29577;DHT22;16509;53.862;10.672;2024-01-07T02:37:16;-0.20;99.90
29577;DHT22;16509;53.862;10.672;2024-01-07T02:39:42;-0.20;99.90
29577;DHT22;16509;53.862;10.672;2024-01-07T02:42:07;-0.20;99.90
29577;DHT22;16509;53.862;10.672;2024-01-07T02:44:33;-0.20;99.90
29577;DHT22;16509;53.862;10.672;2024-01-07T02:46:58;-0.20;99.90
29577;DHT22;16509;53.862;10.672;2024-01-07T02:49:24;-0.20;99.90
29577;DHT22;16509;53.862;10.672;2024-01-07T02:51:49;-0.20;99.90
29577;DHT22;16509;53.862;10.672;2024-01-07T02:54:15;-0.20;99.90
29577;DHT22;16509;53.862;10.672;2024-01-07T02:56:41;-0.20;99.90
29577;DHT22;16509;53.862;10.672;2024-01-07T02:59:06;-0.20;99.90
29577;DHT22;16509;53.862;10.672;2024-01-07T03:01:32;-0.20;99.90
29577;DHT22;16509;53.862;10.672;2024-01-07T03:03:57;-0.20;99.90
29577;DHT22;16509;53.862;10.672;2024-01-07T03:06:26;-0.20;99.90
29577;DHT22;16509;53.862;10.672;2024-01-07T03:08:53;-0.20;99.90
29577;DHT22;16509;53.862;10.672;2024-01-07T03:11:18;-0.20;99.90
29577;DHT22;16509;53.862;10.672;2024-01-07T03:13:44;-0.20;99.90
29577;DHT22;16509;53.862;10.672;2024-01-07T03:16:19;-0.10;99.90
29577;DHT22;16509;53.862;10.672;2024-01-07T03:18:45;-0.20;99.90
29577;DHT22;16509;53.862;10.672;2024-01-07T03:21:19;-0.10;99.90
29577;DHT22;16509;53.862;10.672;2024-01-07T03:23:46;-0.10;99.90
29577;DHT22;16509;53.862;10.672;2024-01-07T03:26:12;-0.10;99.90
29577;DHT22;16509;53.862;10.672;2024-01-07T03:28:38;-0.10;99.90
29577;DHT22;16509;53.862;10.672;2024-01-07T03:31:09;-0.10;99.90
29577;DHT22;16509;53.862;10.672;2024-01-07T03:33:35;-0.10;99.90
29577;DHT22;16509;53.862;10.672;2024-01-07T03:36:01;-0.10;99.90
29577;DHT22;16509;53.862;10.672;2024-01-07T03:38:31;-0.10;99.90
29577;DHT22;16509;53.862;10.672;2024-01-07T03:40:56;-0.10;99.90
29577;DHT22;16509;53.862;10.672;2024-01-07T03:43:22;-0.10;99.90
29577;DHT22;16509;53.862;10.672;2024-01-07T03:45:47;-0.10;99.90
29577;DHT22;16509;53.862;10.672;2024-01-07T03:48:15;-0.10;99.90
29577;DHT22;16509;53.862;10.672;2024-01-07T03:50:40;-0.10;99.90
29577;DHT22;16509;53.862;10.672;2024-01-07T03:53:06;-0.10;99.90
29577;DHT22;16509;53.862;10.672;2024-01-07T03:55:31;-0.10;99.90
29577;DHT22;16509;53.862;10.672;2024-01-07T03:57:57;-0.10;99.90
29577;DHT22;16509;53.862;10.672;2024-01-07T04:00:22;-0.10;99.90
29577;DHT22;16509;53.862;10.672;2024-01-07T04:02:48;-0.10;99.90
29577;DHT22;16509;53.862;10.672;2024-01-07T04:05:13;-0.10;99.90
29577;DHT22;16509;53.862;10.672;2024-01-07T04:07:40;-0.10;99.90
29577;DHT22;16509;53.862;10.672;2024-01-07T04:10:06;-0.10;99.90
29577;DHT22;16509;53.862;10.672;2024-01-07T04:12:31;0.00;99.90
29577;DHT22;16509;53.862;10.672;2024-01-07T04:14:57;0.00;99.90
29577;DHT22;16509;53.862;10.672;2024-01-07T04:17:23;0.00;99.90
29577;DHT22;16509;53.862;10.672;2024-01-07T04:19:49;0.00;99.90
29577;DHT22;16509;53.862;10.672;2024-01-07T04:22:15;0.00;99.90
29577;DHT22;16509;53.862;10.672;2024-01-07T04:24:41;0.00;99.90
29577;DHT22;16509;53.862;10.672;2024-01-07T04:27:07;0.00;99.90
29577;DHT22;16509;53.862;10.672;2024-01-07T04:29:32;0.00;99.90
29577;DHT22;16509;53.862;10.672;2024-01-07T04:31:58;0.10;99.90
29577;DHT22;16509;53.862;10.672;2024-01-07T04:34:23;0.00;99.90
29577;DHT22;16509;53.862;10.672;2024-01-07T04:36:50;0.10;99.90
29577;DHT22;16509;53.862;10.672;2024-01-07T04:39:15;0.20;99.90
29577;DHT22;16509;53.862;10.672;2024-01-07T04:41:41;0.20;99.90
29577;DHT22;16509;53.862;10.672;2024-01-07T04:44:06;0.10;99.90
29577;DHT22;16509;53.862;10.672;2024-01-07T04:46:38;0.10;99.90
29577;DHT22;16509;53.862;10.672;2024-01-07T04:49:04;0.10;99.90
29577;DHT22;16509;53.862;10.672;2024-01-07T04:51:31;0.10;99.90
29577;DHT22;16509;53.862;10.672;2024-01-07T04:53:57;0.20;99.90
29577;DHT22;16509;53.862;10.672;2024-01-07T04:56:22;0.20;99.90
29577;DHT22;16509;53.862;10.672;2024-01-07T04:58:48;0.20;99.90
29577;DHT22;16509;53.862;10.672;2024-01-07T05:01:13;0.20;99.90
29577;DHT22;16509;53.862;10.672;2024-01-07T05:03:39;0.20;99.90
29577;DHT22;16509;53.862;10.672;2024-01-07T05:06:05;0.20;99.90
29577;DHT22;16509;53.862;10.672;2024-01-07T05:08:30;0.20;99.90
29577;DHT22;16509;53.862;10.672;2024-01-07T05:10:56;0.20;99.90
29577;DHT22;16509;53.862;10.672;2024-01-07T05:13:22;0.20;99.90
29577;DHT22;16509;53.862;10.672;2024-01-07T05:15:47;0.20;99.90
29577;DHT22;16509;53.862;10.672;2024-01-07T05:18:22;0.20;99.90
29577;DHT22;16509;53.862;10.672;2024-01-07T05:20:49;0.20;99.90
29577;DHT22;16509;53.862;10.672;2024-01-07T05:23:14;0.30;99.90
29577;DHT22;16509;53.862;10.672;2024-01-07T05:25:41;0.30;99.90
29577;DHT22;16509;53.862;10.672;2024-01-07T05:28:07;0.20;99.90
29577;DHT22;16509;53.862;10.672;2024-01-07T05:30:32;0.30;99.90
29577;DHT22;16509;53.862;10.672;2024-01-07T05:32:58;0.20;99.90
29577;DHT22;16509;53.862;10.672;2024-01-07T05:35:23;0.30;99.90
29577;DHT22;16509;53.862;10.672;2024-01-07T05:37:49;0.30;99.90
29577;DHT22;16509;53.862;10.672;2024-01-07T05:40:15;0.30;99.90
29577;DHT22;16509;53.862;10.672;2024-01-07T05:42:40;0.30;99.90
29577;DHT22;16509;53.862;10.672;2024-01-07T05:45:06;0.30;99.90
29577;DHT22;16509;53.862;10.672;2024-01-07T05:47:32;0.30;99.90
29577;DHT22;16509;53.862;10.672;2024-01-07T05:49:57;0.40;99.90
29577;DHT22;16509;53.862;10.672;2024-01-07T05:52:23;0.30;99.90
29577;DHT22;16509;53.862;10.672;2024-01-07T05:54:49;0.30;99.90
29577;DHT22;16509;53.862;10.672;2024-01-07T05:57:14;0.40;99.90
29577;DHT22;16509;53.862;10.672;2024-01-07T05:59:40;0.40;99.90
29577;DHT22;16509;53.862;10.672;2024-01-07T06:02:06;0.40;99.90
29577;DHT22;16509;53.862;10.672;2024-01-07T06:04:31;0.40;99.90
29577;DHT22;16509;53.862;10.672;2024-01-07T06:06:57;0.40;99.90
29577;DHT22;16509;53.862;10.672;2024-01-07T06:09:23;0.40;99.90
29577;DHT22;16509;53.862;10.672;2024-01-07T06:11:49;0.50;99.90
29577;DHT22;16509;53.862;10.672;2024-01-07T06:14:14;0.60;99.90
29577;DHT22;16509;53.862;10.672;2024-01-07T06:16:40;0.60;99.90
29577;DHT22;16509;53.862;10.672;2024-01-07T06:19:07;0.60;99.90
29577;DHT22;16509;53.862;10.672;2024-01-07T06:21:32;0.60;99.90
29577;DHT22;16509;53.862;10.672;2024-01-07T06:23:58;0.60;99.90
29577;DHT22;16509;53.862;10.672;2024-01-07T06:26:23;0.70;99.90
29577;DHT22;16509;53.862;10.672;2024-01-07T06:28:49;0.70;99.90
29577;DHT22;16509;53.862;10.672;2024-01-07T06:31:15;0.70;99.90
29577;DHT22;16509;53.862;10.672;2024-01-07T06:33:40;0.70;99.90
29577;DHT22;16509;53.862;10.672;2024-01-07T06:36:06;0.80;99.90
29577;DHT22;16509;53.862;10.672;2024-01-07T06:38:32;0.70;99.90
29577;DHT22;16509;53.862;10.672;2024-01-07T06:40:57;0.70;99.90
29577;DHT22;16509;53.862;10.672;2024-01-07T06:43:27;0.70;99.90
29577;DHT22;16509;53.862;10.672;2024-01-07T06:45:52;0.60;99.90
29577;DHT22;16509;53.862;10.672;2024-01-07T06:48:19;0.60;99.90
29577;DHT22;16509;53.862;10.672;2024-01-07T06:50:44;0.60;99.90
29577;DHT22;16509;53.862;10.672;2024-01-07T06:53:10;0.60;99.90
29577;DHT22;16509;53.862;10.672;2024-01-07T06:55:35;0.60;99.90
29577;DHT22;16509;53.862;10.672;2024-01-07T06:58:02;0.60;99.90
29577;DHT22;16509;53.862;10.672;2024-01-07T07:00:28;0.50;99.90
29577;DHT22;16509;53.862;10.672;2024-01-07T07:02:53;0.40;99.90
29577;DHT22;16509;53.862;10.672;2024-01-07T07:05:19;0.30;99.90
29577;DHT22;16509;53.862;10.672;2024-01-07T07:07:44;0.30;99.90
29577;DHT22;16509;53.862;10.672;2024-01-07T07:10:11;0.30;99.90
29577;DHT22;16509;53.862;10.672;2024-01-07T07:12:36;0.20;99.90
29577;DHT22;16509;53.862;10.672;2024-01-07T07:15:02;0.10;99.90
29577;DHT22;16509;53.862;10.672;2024-01-07T07:17:27;0.10;99.90
29577;DHT22;16509;53.862;10.672;2024-01-07T07:19:53;0.10;99.90
29577;DHT22;16509;53.862;10.672;2024-01-07T07:22:18;0.00;99.90
29577;DHT22;16509;53.862;10.672;2024-01-07T07:24:44;-0.10;99.90
29577;DHT22;16509;53.862;10.672;2024-01-07T07:27:09;-0.10;99.90
29577;DHT22;16509;53.862;10.672;2024-01-07T07:29:35;0.00;99.90
29577;DHT22;16509;53.862;10.672;2024-01-07T07:32:00;-0.10;99.90
29577;DHT22;16509;53.862;10.672;2024-01-07T07:34:26;-0.10;99.90
29577;DHT22;16509;53.862;10.672;2024-01-07T07:36:51;-0.10;99.90
29577;DHT22;16509;53.862;10.672;2024-01-07T07:39:17;-0.10;99.90
29577;DHT22;16509;53.862;10.672;2024-01-07T07:41:42;-0.10;99.90
29577;DHT22;16509;53.862;10.672;2024-01-07T07:44:08;-0.10;99.90
29577;DHT22;16509;53.862;10.672;2024-01-07T07:46:33;-0.10;99.90
29577;DHT22;16509;53.862;10.672;2024-01-07T07:48:59;-0.10;99.90
29577;DHT22;16509;53.862;10.672;2024-01-07T07:51:26;-0.20;99.90
29577;DHT22;16509;53.862;10.672;2024-01-07T07:53:52;-0.20;99.90
29577;DHT22;16509;53.862;10.672;2024-01-07T07:56:17;-0.20;99.90
29577;DHT22;16509;53.862;10.672;2024-01-07T07:58:43;-0.30;99.90
29577;DHT22;16509;53.862;10.672;2024-01-07T08:01:08;-0.20;99.90
29577;DHT22;16509;53.862;10.672;2024-01-07T08:03:34;-0.20;99.90
29577;DHT22;16509;53.862;10.672;2024-01-07T08:06:00;-0.20;99.90
29577;DHT22;16509;53.862;10.672;2024-01-07T08:08:25;-0.20;99.90
29577;DHT22;16509;53.862;10.672;2024-01-07T08:10:51;-0.30;99.90
29577;DHT22;16509;53.862;10.672;2024-01-07T08:13:16;-0.40;99.90
29577;DHT22;16509;53.862;10.672;2024-01-07T08:15:42;-0.30;99.90
29577;DHT22;16509;53.862;10.672;2024-01-07T08:18:08;-0.30;99.90
29577;DHT22;16509;53.862;10.672;2024-01-07T08:20:33;-0.30;99.90
29577;DHT22;16509;53.862;10.672;2024-01-07T08:22:59;-0.30;99.90
29577;DHT22;16509;53.862;10.672;2024-01-07T08:25:25;-0.30;99.90
29577;DHT22;16509;53.862;10.672;2024-01-07T08:27:51;-0.30;99.90
29577;DHT22;16509;53.862;10.672;2024-01-07T08:30:16;-0.30;99.90
29577;DHT22;16509;53.862;10.672;2024-01-07T08:32:42;-0.30;99.90
29577;DHT22;16509;53.862;10.672;2024-01-07T08:35:08;-0.30;99.90
29577;DHT22;16509;53.862;10.672;2024-01-07T08:37:34;-0.30;99.90
29577;DHT22;16509;53.862;10.672;2024-01-07T08:40:00;-0.30;99.90
29577;DHT22;16509;53.862;10.672;2024-01-07T08:42:27;-0.30;99.90
29577;DHT22;16509;53.862;10.672;2024-01-07T08:44:55;-0.30;99.90
29577;DHT22;16509;53.862;10.672;2024-01-07T08:47:20;-0.40;99.90
29577;DHT22;16509;53.862;10.672;2024-01-07T08:49:46;-0.40;99.90
29577;DHT22;16509;53.862;10.672;2024-01-07T08:52:12;-0.50;99.90
29577;DHT22;16509;53.862;10.672;2024-01-07T08:54:37;-0.50;99.90
29577;DHT22;16509;53.862;10.672;2024-01-07T08:57:03;-0.50;99.90
29577;DHT22;16509;53.862;10.672;2024-01-07T08:59:28;-0.50;99.90
29577;DHT22;16509;53.862;10.672;2024-01-07T09:01:54;-0.50;99.90
29577;DHT22;16509;53.862;10.672;2024-01-07T09:04:19;-0.50;99.90
29577;DHT22;16509;53.862;10.672;2024-01-07T09:06:45;-0.50;99.90
29577;DHT22;16509;53.862;10.672;2024-01-07T09:09:11;-0.50;99.90
29577;DHT22;16509;53.862;10.672;2024-01-07T09:11:36;-0.60;99.90
29577;DHT22;16509;53.862;10.672;2024-01-07T09:14:02;-0.50;99.90
29577;DHT22;16509;53.862;10.672;2024-01-07T09:16:31;-0.50;99.90
29577;DHT22;16509;53.862;10.672;2024-01-07T09:18:56;-0.50;99.90
29577;DHT22;16509;53.862;10.672;2024-01-07T09:21:22;-0.50;99.90
29577;DHT22;16509;53.862;10.672;2024-01-07T09:23:48;-0.50;99.90
29577;DHT22;16509;53.862;10.672;2024-01-07T09:26:14;-0.50;99.90
29577;DHT22;16509;53.862;10.672;2024-01-07T09:28:39;-0.50;99.90
29577;DHT22;16509;53.862;10.672;2024-01-07T09:31:05;-0.40;99.90
29577;DHT22;16509;53.862;10.672;2024-01-07T09:33:31;-0.50;99.90
29577;DHT22;16509;53.862;10.672;2024-01-07T09:35:57;-0.40;99.90
29577;DHT22;16509;53.862;10.672;2024-01-07T09:38:22;-0.50;99.90
29577;DHT22;16509;53.862;10.672;2024-01-07T09:40:50;-0.40;99.90
29577;DHT22;16509;53.862;10.672;2024-01-07T09:43:15;-0.40;99.90
29577;DHT22;16509;53.862;10.672;2024-01-07T09:45:42;-0.30;99.90
29577;DHT22;16509;53.862;10.672;2024-01-07T09:48:11;-0.30;99.90
29577;DHT22;16509;53.862;10.672;2024-01-07T09:50:36;-0.30;99.90
29577;DHT22;16509;53.862;10.672;2024-01-07T09:53:02;-0.30;99.90
29577;DHT22;16509;53.862;10.672;2024-01-07T09:55:37;-0.30;99.90
29577;DHT22;16509;53.862;10.672;2024-01-07T09:58:05;-0.30;99.90
29577;DHT22;16509;53.862;10.672;2024-01-07T10:00:32;-0.20;99.90
29577;DHT22;16509;53.862;10.672;2024-01-07T10:02:57;-0.20;99.90
29577;DHT22;16509;53.862;10.672;2024-01-07T10:05:23;-0.20;99.90
29577;DHT22;16509;53.862;10.672;2024-01-07T10:07:48;-0.30;99.90
29577;DHT22;16509;53.862;10.672;2024-01-07T10:10:15;-0.30;99.90
29577;DHT22;16509;53.862;10.672;2024-01-07T10:12:40;-0.30;99.90
29577;DHT22;16509;53.862;10.672;2024-01-07T10:15:06;-0.30;99.90
29577;DHT22;16509;53.862;10.672;2024-01-07T10:17:33;-0.40;99.90
29577;DHT22;16509;53.862;10.672;2024-01-07T10:19:58;-0.40;99.90
29577;DHT22;16509;53.862;10.672;2024-01-07T10:22:24;-0.30;99.90
29577;DHT22;16509;53.862;10.672;2024-01-07T10:24:51;-0.30;99.90
29577;DHT22;16509;53.862;10.672;2024-01-07T10:27:17;-0.30;99.90
29577;DHT22;16509;53.862;10.672;2024-01-07T10:29:43;-0.30;99.90
29577;DHT22;16509;53.862;10.672;2024-01-07T10:32:08;-0.20;99.90
29577;DHT22;16509;53.862;10.672;2024-01-07T10:34:35;-0.20;99.90
29577;DHT22;16509;53.862;10.672;2024-01-07T10:37:02;-0.30;99.90
29577;DHT22;16509;53.862;10.672;2024-01-07T10:39:29;-0.30;99.90
29577;DHT22;16509;53.862;10.672;2024-01-07T10:41:55;-0.40;99.90
29577;DHT22;16509;53.862;10.672;2024-01-07T10:44:27;-0.50;99.90
29577;DHT22;16509;53.862;10.672;2024-01-07T10:46:54;-0.50;99.90
29577;DHT22;16509;53.862;10.672;2024-01-07T10:49:22;-0.60;99.90
29577;DHT22;16509;53.862;10.672;2024-01-07T10:52:07;-0.70;99.90
29577;DHT22;16509;53.862;10.672;2024-01-07T10:54:34;-0.80;99.90
29577;DHT22;16509;53.862;10.672;2024-01-07T10:57:07;-0.90;99.90
29577;DHT22;16509;53.862;10.672;2024-01-07T10:59:36;-1.00;99.90
29577;DHT22;16509;53.862;10.672;2024-01-07T11:02:02;-1.00;99.90
29577;DHT22;16509;53.862;10.672;2024-01-07T11:07:48;-1.10;99.90
29577;DHT22;16509;53.862;10.672;2024-01-07T11:10:20;-1.10;99.90
29577;DHT22;16509;53.862;10.672;2024-01-07T11:12:56;-1.10;99.90
29577;DHT22;16509;53.862;10.672;2024-01-07T11:18:21;-1.10;99.90
29577;DHT22;16509;53.862;10.672;2024-01-07T11:20:48;-1.10;99.90
29577;DHT22;16509;53.862;10.672;2024-01-07T11:23:29;-1.10;99.90
29577;DHT22;16509;53.862;10.672;2024-01-07T11:25:59;-1.10;99.90
29577;DHT22;16509;53.862;10.672;2024-01-07T11:31:09;-1.10;99.90
29577;DHT22;16509;53.862;10.672;2024-01-07T11:33:38;-1.10;99.90
29577;DHT22;16509;53.862;10.672;2024-01-07T11:36:07;-1.10;99.90
29577;DHT22;16509;53.862;10.672;2024-01-07T11:38:36;-1.10;99.90
29577;DHT22;16509;53.862;10.672;2024-01-07T11:41:05;-1.00;99.90
29577;DHT22;16509;53.862;10.672;2024-01-07T11:43:31;-1.00;99.90
29577;DHT22;16509;53.862;10.672;2024-01-07T11:45:57;-1.00;99.90
29577;DHT22;16509;53.862;10.672;2024-01-07T11:48:23;-1.00;99.90
29577;DHT22;16509;53.862;10.672;2024-01-07T11:50:49;-1.00;99.90
29577;DHT22;16509;53.862;10.672;2024-01-07T11:53:15;-1.00;99.90
29577;DHT22;16509;53.862;10.672;2024-01-07T11:55:40;-1.00;99.90
29577;DHT22;16509;53.862;10.672;2024-01-07T11:58:06;-1.00;99.90
29577;DHT22;16509;53.862;10.672;2024-01-07T12:00:35;-1.10;99.90
29577;DHT22;16509;53.862;10.672;2024-01-07T12:03:02;-1.00;99.90
29577;DHT22;16509;53.862;10.672;2024-01-07T12:05:28;-1.00;99.90
29577;DHT22;16509;53.862;10.672;2024-01-07T12:07:54;-1.00;99.90
29577;DHT22;16509;53.862;10.672;2024-01-07T12:10:20;-1.00;99.90
29577;DHT22;16509;53.862;10.672;2024-01-07T12:12:46;-0.90;99.90
29577;DHT22;16509;53.862;10.672;2024-01-07T12:15:12;-0.90;99.90
29577;DHT22;16509;53.862;10.672;2024-01-07T12:17:39;-0.80;99.90
29577;DHT22;16509;53.862;10.672;2024-01-07T12:20:05;-0.80;99.90
29577;DHT22;16509;53.862;10.672;2024-01-07T12:22:32;-0.70;99.90
29577;DHT22;16509;53.862;10.672;2024-01-07T12:25:05;-0.70;99.90
29577;DHT22;16509;53.862;10.672;2024-01-07T12:27:32;-0.60;99.90
29577;DHT22;16509;53.862;10.672;2024-01-07T12:29:59;-0.60;99.90
29577;DHT22;16509;53.862;10.672;2024-01-07T12:32:29;-0.70;99.90
29577;DHT22;16509;53.862;10.672;2024-01-07T12:34:57;-0.60;99.90
29577;DHT22;16509;53.862;10.672;2024-01-07T12:37:26;-0.60;99.90
29577;DHT22;16509;53.862;10.672;2024-01-07T12:39:52;-0.80;99.90
29577;DHT22;16509;53.862;10.672;2024-01-07T12:42:17;-0.90;99.90
29577;DHT22;16509;53.862;10.672;2024-01-07T12:44:43;-1.00;99.90
29577;DHT22;16509;53.862;10.672;2024-01-07T12:47:09;-0.90;99.90
29577;DHT22;16509;53.862;10.672;2024-01-07T12:49:34;-0.90;99.90
29577;DHT22;16509;53.862;10.672;2024-01-07T12:52:00;-0.90;99.90
29577;DHT22;16509;53.862;10.672;2024-01-07T12:54:26;-0.90;99.90
29577;DHT22;16509;53.862;10.672;2024-01-07T12:56:51;-0.90;99.90
29577;DHT22;16509;53.862;10.672;2024-01-07T12:59:17;-0.90;99.90
29577;DHT22;16509;53.862;10.672;2024-01-07T13:01:42;-0.80;99.90
29577;DHT22;16509;53.862;10.672;2024-01-07T13:04:08;-0.90;99.90
29577;DHT22;16509;53.862;10.672;2024-01-07T13:06:35;-0.90;99.90
29577;DHT22;16509;53.862;10.672;2024-01-07T13:09:00;-0.90;99.90
29577;DHT22;16509;53.862;10.672;2024-01-07T13:11:29;-0.90;99.90
29577;DHT22;16509;53.862;10.672;2024-01-07T13:13:55;-0.90;99.90
29577;DHT22;16509;53.862;10.672;2024-01-07T13:16:24;-1.00;99.90
29577;DHT22;16509;53.862;10.672;2024-01-07T13:18:50;-1.10;99.90
29577;DHT22;16509;53.862;10.672;2024-01-07T13:21:16;-1.30;99.90
29577;DHT22;16509;53.862;10.672;2024-01-07T13:23:43;-1.30;99.90
29577;DHT22;16509;53.862;10.672;2024-01-07T13:26:10;-1.30;99.90
29577;DHT22;16509;53.862;10.672;2024-01-07T13:28:35;-1.20;99.90
29577;DHT22;16509;53.862;10.672;2024-01-07T13:31:01;-1.20;99.90
29577;DHT22;16509;53.862;10.672;2024-01-07T13:33:29;-1.10;99.90
29577;DHT22;16509;53.862;10.672;2024-01-07T13:35:54;-1.00;99.90
29577;DHT22;16509;53.862;10.672;2024-01-07T13:38:20;-1.10;99.90
29577;DHT22;16509;53.862;10.672;2024-01-07T13:40:45;-1.20;99.90
29577;DHT22;16509;53.862;10.672;2024-01-07T13:43:11;-1.20;99.90
29577;DHT22;16509;53.862;10.672;2024-01-07T13:45:37;-1.10;99.90
29577;DHT22;16509;53.862;10.672;2024-01-07T13:48:03;-1.10;99.90
29577;DHT22;16509;53.862;10.672;2024-01-07T13:50:28;-1.20;99.90
29577;DHT22;16509;53.862;10.672;2024-01-07T13:52:54;-1.20;99.90
29577;DHT22;16509;53.862;10.672;2024-01-07T13:55:19;-1.30;99.90
29577;DHT22;16509;53.862;10.672;2024-01-07T13:57:45;-1.30;99.90
29577;DHT22;16509;53.862;10.672;2024-01-07T14:00:11;-1.30;99.90
29577;DHT22;16509;53.862;10.672;2024-01-07T14:02:43;-1.30;99.90
29577;DHT22;16509;53.862;10.672;2024-01-07T14:05:10;-1.30;99.90
29577;DHT22;16509;53.862;10.672;2024-01-07T14:07:37;-1.40;99.90
29577;DHT22;16509;53.862;10.672;2024-01-07T14:10:04;-1.40;99.90
29577;DHT22;16509;53.862;10.672;2024-01-07T14:12:30;-1.50;99.90
29577;DHT22;16509;53.862;10.672;2024-01-07T14:14:57;-1.50;99.90
29577;DHT22;16509;53.862;10.672;2024-01-07T14:17:22;-1.60;99.90
29577;DHT22;16509;53.862;10.672;2024-01-07T14:19:48;-1.70;99.90
29577;DHT22;16509;53.862;10.672;2024-01-07T14:22:13;-1.70;99.90
29577;DHT22;16509;53.862;10.672;2024-01-07T14:24:39;-1.70;99.90
29577;DHT22;16509;53.862;10.672;2024-01-07T14:27:04;-1.70;99.90
29577;DHT22;16509;53.862;10.672;2024-01-07T14:29:30;-1.60;99.90
29577;DHT22;16509;53.862;10.672;2024-01-07T14:31:56;-1.70;99.90
29577;DHT22;16509;53.862;10.672;2024-01-07T14:34:21;-1.60;99.90
29577;DHT22;16509;53.862;10.672;2024-01-07T14:36:47;-1.70;99.90
29577;DHT22;16509;53.862;10.672;2024-01-07T14:39:12;-1.70;99.90
29577;DHT22;16509;53.862;10.672;2024-01-07T14:41:41;-1.70;99.90
29577;DHT22;16509;53.862;10.672;2024-01-07T14:44:06;-1.70;99.90
29577;DHT22;16509;53.862;10.672;2024-01-07T14:46:32;-1.80;99.90
29577;DHT22;16509;53.862;10.672;2024-01-07T14:48:57;-1.70;99.90
29577;DHT22;16509;53.862;10.672;2024-01-07T14:51:23;-1.80;99.90
29577;DHT22;16509;53.862;10.672;2024-01-07T14:53:48;-1.80;99.90
29577;DHT22;16509;53.862;10.672;2024-01-07T14:56:14;-1.80;99.90
29577;DHT22;16509;53.862;10.672;2024-01-07T14:58:39;-1.80;99.90
29577;DHT22;16509;53.862;10.672;2024-01-07T15:01:06;-1.80;99.90
29577;DHT22;16509;53.862;10.672;2024-01-07T15:03:32;-1.80;99.90
29577;DHT22;16509;53.862;10.672;2024-01-07T15:05:57;-1.90;99.90
29577;DHT22;16509;53.862;10.672;2024-01-07T15:08:23;-1.90;99.90
29577;DHT22;16509;53.862;10.672;2024-01-07T15:10:49;-1.80;99.90
29577;DHT22;16509;53.862;10.672;2024-01-07T15:13:15;-1.90;99.90
29577;DHT22;16509;53.862;10.672;2024-01-07T15:15:41;-1.80;99.90
29577;DHT22;16509;53.862;10.672;2024-01-07T15:18:07;-1.80;99.90
29577;DHT22;16509;53.862;10.672;2024-01-07T15:20:32;-1.80;99.90
29577;DHT22;16509;53.862;10.672;2024-01-07T15:22:58;-1.80;99.90